Time;durP1;ratioP1;P1;durP2;ratioP2;P2;SDS_P1;SDS_P2;PMS_P1;PMS_P2;Temp;Humidity;BMP_temperature;BMP_pressure;BME280_temperature;BME280_humidity;BME280_pressure;Samples;Min_cycle;Max_cycle;Signal;HPM_P1;HPM_P2
2021/08/17 00:00:43;;;;;;;7.20;2.90;;;12.30;99.90;;;;;;4972971;28;20023;-76
2021/08/17 00:03:10;;;;;;;6.60;2.40;;;12.30;99.90;;;;;;4973341;28;20023;-76
2021/08/17 00:05:37;;;;;;;6.80;2.50;;;12.30;99.90;;;;;;4972071;28;20183;-75
2021/08/17 00:08:03;;;;;;;7.03;3.08;;;12.40;99.90;;;;;;4973701;28;20445;-76
2021/08/17 00:10:29;;;;;;;7.20;2.45;;;12.40;99.90;;;;;;4973185;28;20395;-76
2021/08/17 00:12:55;;;;;;;10.65;2.97;;;12.50;99.90;;;;;;4972545;28;20015;-78
2021/08/17 00:15:20;;;;;;;6.63;2.70;;;12.50;99.90;;;;;;4973370;28;20030;-76
2021/08/17 00:17:46;;;;;;;13.07;2.80;;;12.60;99.90;;;;;;4972858;28;20445;-77
2021/08/17 00:20:13;;;;;;;12.05;2.75;;;12.60;99.90;;;;;;4972964;28;20069;-77
2021/08/17 00:22:39;;;;;;;6.80;2.63;;;12.60;99.90;;;;;;4974834;28;20407;-77
2021/08/17 00:25:06;;;;;;;10.82;2.92;;;12.50;99.90;;;;;;4975405;28;20038;-76
2021/08/17 00:27:32;;;;;;;10.75;3.05;;;12.50;99.90;;;;;;4972411;28;20023;-76
2021/08/17 00:29:57;;;;;;;14.02;3.08;;;12.50;99.90;;;;;;4974436;28;20108;-77
2021/08/17 00:32:24;;;;;;;10.45;2.40;;;12.50;99.90;;;;;;4973885;28;20173;-77
2021/08/17 00:34:49;;;;;;;8.40;2.60;;;12.50;99.90;;;;;;4972050;28;20034;-77
2021/08/17 00:37:19;;;;;;;5.10;2.97;;;12.50;99.90;;;;;;4973085;28;20110;-77
2021/08/17 00:39:44;;;;;;;9.75;2.92;;;12.50;99.90;;;;;;4972131;28;20034;-77
2021/08/17 00:42:10;;;;;;;4.72;3.40;;;12.50;99.90;;;;;;4972950;28;20029;-76
2021/08/17 00:44:36;;;;;;;6.60;2.78;;;12.50;99.90;;;;;;4972624;28;20055;-76
2021/08/17 00:47:02;;;;;;;7.13;2.53;;;12.50;99.90;;;;;;4971985;28;20050;-76
2021/08/17 00:49:28;;;;;;;6.15;2.50;;;12.60;99.90;;;;;;4972653;28;20039;-77
2021/08/17 00:52:07;;;;;;;7.53;2.85;;;12.50;99.90;;;;;;4973105;28;20098;-77
2021/08/17 00:54:43;;;;;;;13.30;3.38;;;12.60;99.90;;;;;;4958830;28;20110;-77
2021/08/17 00:57:11;;;;;;;9.27;2.88;;;12.60;99.90;;;;;;4973409;28;20085;-77
2021/08/17 00:59:36;;;;;;;9.05;3.50;;;12.60;99.90;;;;;;4975907;28;20213;-77
2021/08/17 01:02:03;;;;;;;4.15;2.20;;;12.70;99.90;;;;;;4975547;28;20105;-77
2021/08/17 01:04:29;;;;;;;7.00;2.47;;;12.70;99.90;;;;;;4976028;28;20042;-77
2021/08/17 01:06:55;;;;;;;8.77;2.65;;;12.70;99.90;;;;;;4976235;28;20122;-77
2021/08/17 01:09:20;;;;;;;7.43;3.67;;;12.70;99.90;;;;;;4975432;28;20209;-77
2021/08/17 01:11:48;;;;;;;10.23;3.22;;;12.70;99.90;;;;;;4975852;28;20029;-77
2021/08/17 01:14:18;;;;;;;10.15;3.03;;;12.80;99.90;;;;;;4976016;28;20463;-78
2021/08/17 01:16:43;;;;;;;14.90;3.05;;;12.80;99.90;;;;;;4961874;28;20034;-77
2021/08/17 01:19:11;;;;;;;10.20;3.15;;;12.80;99.90;;;;;;4976191;28;20078;-76
2021/08/17 01:21:37;;;;;;;8.52;2.53;;;12.80;99.90;;;;;;4975692;28;20026;-76
2021/08/17 01:24:03;;;;;;;8.98;2.90;;;12.90;99.90;;;;;;4975336;28;20030;-76
2021/08/17 01:26:29;;;;;;;7.82;2.72;;;12.80;99.90;;;;;;4975413;28;20538;-76
2021/08/17 01:28:54;;;;;;;6.55;2.97;;;12.80;99.90;;;;;;4975554;28;20039;-77
2021/08/17 01:31:20;;;;;;;6.70;3.35;;;12.90;99.90;;;;;;4974867;28;20030;-77
2021/08/17 01:33:46;;;;;;;8.75;3.90;;;12.90;99.90;;;;;;4975456;28;20027;-76
2021/08/17 01:36:11;;;;;;;12.45;3.50;;;13.00;99.90;;;;;;4975073;28;20129;-75
2021/08/17 01:38:47;;;;;;;10.93;4.45;;;13.10;99.90;;;;;;4975116;28;20550;-76
2021/08/17 01:41:14;;;;;;;11.00;3.25;;;13.10;99.90;;;;;;4975518;28;20391;-76
2021/08/17 01:43:40;;;;;;;9.35;3.35;;;13.10;99.90;;;;;;4974785;28;20114;-75
2021/08/17 01:46:06;;;;;;;5.93;3.17;;;13.20;99.90;;;;;;4975475;28;20483;-76
2021/08/17 01:48:32;;;;;;;8.05;3.85;;;13.20;99.90;;;;;;4975309;28;20106;-77
2021/08/17 01:50:59;;;;;;;7.60;3.60;;;13.20;99.90;;;;;;4974882;28;20069;-76
2021/08/17 01:53:26;;;;;;;6.35;3.17;;;13.20;99.90;;;;;;4975522;28;20031;-76
2021/08/17 01:55:53;;;;;;;12.02;4.20;;;13.20;99.90;;;;;;4975192;28;20030;-76
2021/08/17 01:58:22;;;;;;;10.25;3.75;;;13.20;99.90;;;;;;4974770;28;20030;-76
2021/08/17 02:00:48;;;;;;;6.65;3.65;;;13.10;99.90;;;;;;4974916;28;20045;-77
2021/08/17 02:03:14;;;;;;;15.38;4.00;;;13.10;99.90;;;;;;4975423;28;20031;-76
2021/08/17 02:05:39;;;;;;;6.30;3.38;;;13.10;99.90;;;;;;4974146;28;20034;-76
2021/08/17 02:08:05;;;;;;;9.65;4.05;;;13.20;99.90;;;;;;4975117;28;20043;-76
2021/08/17 02:10:32;;;;;;;8.57;3.55;;;13.10;99.90;;;;;;4973954;28;20106;-76
2021/08/17 02:12:57;;;;;;;9.13;3.50;;;13.10;99.90;;;;;;4974521;28;20027;-76
2021/08/17 02:15:23;;;;;;;9.45;3.80;;;13.10;99.90;;;;;;4975120;28;20081;-75
2021/08/17 02:17:49;;;;;;;7.18;3.47;;;13.10;99.90;;;;;;4974624;28;20128;-75
2021/08/17 02:20:15;;;;;;;7.72;3.90;;;13.10;99.90;;;;;;4974307;28;20057;-76
2021/08/17 02:22:40;;;;;;;8.88;3.45;;;13.20;99.90;;;;;;4974400;28;20030;-75
2021/08/17 02:25:07;;;;;;;12.13;4.18;;;13.20;99.90;;;;;;4974783;28;20117;-75
2021/08/17 02:27:34;;;;;;;9.63;3.17;;;13.20;99.90;;;;;;4973321;28;20106;-76
2021/08/17 02:30:01;;;;;;;6.32;3.72;;;13.20;99.90;;;;;;4974922;28;20037;-76
2021/08/17 02:32:26;;;;;;;8.88;3.80;;;13.20;99.90;;;;;;4973906;28;20542;-75
2021/08/17 02:34:52;;;;;;;9.77;4.00;;;13.40;99.90;;;;;;4974597;28;20039;-76
2021/08/17 02:37:17;;;;;;;11.80;3.42;;;13.30;99.90;;;;;;4974629;28;20125;-75
2021/08/17 02:39:43;;;;;;;10.00;4.30;;;13.30;99.90;;;;;;4973259;28;20046;-75
2021/08/17 02:42:08;;;;;;;8.18;4.25;;;13.30;99.90;;;;;;4974562;28;20015;-77
2021/08/17 02:44:34;;;;;;;9.43;3.30;;;13.30;99.90;;;;;;4974325;28;20054;-75
2021/08/17 02:47:00;;;;;;;5.28;3.20;;;13.30;99.90;;;;;;4973669;28;20019;-76
2021/08/17 02:49:25;;;;;;;8.25;3.38;;;13.30;99.90;;;;;;4974468;28;20093;-76
2021/08/17 02:51:51;;;;;;;7.53;3.80;;;13.30;99.90;;;;;;4973857;28;20034;-76
2021/08/17 02:54:16;;;;;;;6.45;3.85;;;13.30;99.90;;;;;;4973542;28;20077;-77
2021/08/17 02:56:42;;;;;;;7.93;3.40;;;13.30;99.90;;;;;;4974586;28;20113;-77
2021/08/17 02:59:07;;;;;;;5.78;3.60;;;13.40;99.90;;;;;;4974620;28;20153;-76
2021/08/17 03:01:33;;;;;;;10.73;3.67;;;13.30;99.90;;;;;;4973905;28;20031;-77
2021/08/17 03:03:59;;;;;;;7.45;3.83;;;13.30;99.90;;;;;;4974061;28;20491;-77
2021/08/17 03:06:24;;;;;;;6.32;3.92;;;13.40;99.90;;;;;;4974232;28;20367;-76
2021/08/17 03:08:50;;;;;;;7.78;4.13;;;13.30;99.90;;;;;;4972931;28;20029;-75
2021/08/17 03:11:15;;;;;;;6.60;3.72;;;13.40;99.90;;;;;;4977985;28;20035;-76
2021/08/17 03:13:41;;;;;;;7.13;3.97;;;13.40;99.90;;;;;;4977290;28;20023;-76
2021/08/17 03:16:07;;;;;;;6.25;3.60;;;14.40;99.90;;;;;;4973220;28;20086;-77
2021/08/17 03:18:32;;;;;;;6.88;4.13;;;13.40;99.90;;;;;;4973730;28;20031;-77
2021/08/17 03:20:58;;;;;;;9.90;4.20;;;13.40;99.90;;;;;;4972887;28;20035;-77
2021/08/17 03:23:27;;;;;;;7.93;3.70;;;13.40;99.90;;;;;;4973007;28;20023;-76
2021/08/17 03:25:54;;;;;;;8.02;4.50;;;13.30;99.90;;;;;;4973916;28;20030;-77
2021/08/17 03:28:20;;;;;;;9.38;4.40;;;13.30;99.90;;;;;;4973508;28;20047;-78
2021/08/17 03:30:45;;;;;;;8.23;4.35;;;13.20;99.90;;;;;;4972747;28;20049;-76
2021/08/17 03:33:11;;;;;;;11.82;4.55;;;13.20;99.90;;;;;;4973709;28;20034;-76
2021/08/17 03:35:37;;;;;;;7.65;4.10;;;13.20;99.90;;;;;;4972544;28;20026;-76
2021/08/17 03:38:02;;;;;;;9.68;4.57;;;13.10;99.90;;;;;;4973474;28;20038;-75
2021/08/17 03:40:28;;;;;;;10.82;4.93;;;13.10;99.90;;;;;;4972927;28;20039;-76
2021/08/17 03:42:54;;;;;;;12.20;5.78;;;13.10;99.90;;;;;;4972967;28;20027;-76
2021/08/17 03:45:20;;;;;;;13.15;5.35;;;13.10;99.90;;;;;;4973528;28;20120;-76
2021/08/17 03:47:45;;;;;;;12.68;5.72;;;13.10;99.90;;;;;;4973338;28;20062;-76
2021/08/17 03:50:13;;;;;;;9.82;5.72;;;13.00;99.90;;;;;;4972762;28;20102;-77
2021/08/17 03:52:40;;;;;;;10.75;5.60;;;13.00;99.90;;;;;;4973202;28;20035;-76
2021/08/17 03:55:07;;;;;;;14.20;5.78;;;13.00;99.90;;;;;;4973247;28;20361;-76
2021/08/17 03:57:32;;;;;;;8.45;5.30;;;13.00;99.90;;;;;;4972108;28;20031;-77
2021/08/17 03:59:58;;;;;;;10.55;5.43;;;12.90;99.90;;;;;;4973336;28;20030;-77
2021/08/17 04:02:23;;;;;;;14.85;5.55;;;13.00;99.90;;;;;;4973316;28;20019;-77
2021/08/17 04:04:49;;;;;;;10.65;6.07;;;13.00;99.90;;;;;;4972448;28;20475;-77
2021/08/17 04:07:15;;;;;;;11.57;6.25;;;12.90;99.90;;;;;;4972913;28;20562;-77
2021/08/17 04:09:41;;;;;;;15.93;7.13;;;13.00;99.90;;;;;;4973100;28;20033;-74
2021/08/17 04:12:07;;;;;;;13.82;7.35;;;13.00;99.90;;;;;;4972542;28;20105;-78
2021/08/17 04:14:32;;;;;;;13.88;7.20;;;13.00;99.90;;;;;;4972910;28;20118;-75
2021/08/17 04:16:58;;;;;;;13.63;7.68;;;13.00;99.90;;;;;;4973218;28;20019;-75
2021/08/17 04:19:27;;;;;;;20.10;8.52;;;13.20;99.90;;;;;;4972204;28;20030;-76
2021/08/17 04:21:53;;;;;;;23.45;8.50;;;13.10;99.90;;;;;;4972980;28;20034;-75
2021/08/17 04:24:18;;;;;;;20.42;8.20;;;13.10;99.90;;;;;;4972949;28;20023;-74
2021/08/17 04:26:44;;;;;;;15.32;8.18;;;13.20;99.90;;;;;;4972020;28;20146;-76
2021/08/17 04:29:10;;;;;;;15.65;9.65;;;13.30;99.90;;;;;;4972784;28;20047;-77
2021/08/17 04:31:36;;;;;;;18.60;9.15;;;13.20;99.90;;;;;;4972553;28;20051;-75
2021/08/17 04:34:02;;;;;;;17.75;9.52;;;13.30;99.90;;;;;;4975589;28;20019;-77
2021/08/17 04:36:28;;;;;;;17.63;9.90;;;13.40;99.90;;;;;;4976324;28;20435;-76
2021/08/17 04:38:53;;;;;;;28.42;9.88;;;13.40;99.90;;;;;;4976129;28;20030;-76
2021/08/17 04:41:19;;;;;;;21.98;10.18;;;13.50;99.90;;;;;;4976624;28;20027;-77
2021/08/17 04:43:46;;;;;;;23.67;10.02;;;13.50;99.90;;;;;;4976337;28;20027;-75
2021/08/17 04:46:12;;;;;;;21.58;10.18;;;13.50;99.90;;;;;;4975897;28;20041;-76
2021/08/17 04:48:37;;;;;;;24.05;10.27;;;13.50;99.90;;;;;;4976153;28;20118;-76
2021/08/17 04:51:03;;;;;;;18.50;10.30;;;13.60;99.90;;;;;;4976404;28;20606;-76
2021/08/17 04:53:28;;;;;;;20.00;10.63;;;13.60;99.90;;;;;;4975764;28;20077;-77
2021/08/17 04:55:57;;;;;;;19.33;9.82;;;13.60;99.90;;;;;;4976223;28;20019;-78
2021/08/17 04:58:23;;;;;;;19.13;9.30;;;13.60;99.90;;;;;;4976402;28;20038;-76
2021/08/17 05:00:48;;;;;;;21.00;10.45;;;13.60;99.90;;;;;;4975303;28;20026;-76
2021/08/17 05:03:14;;;;;;;24.35;10.13;;;13.60;99.90;;;;;;4976338;28;20371;-77
2021/08/17 05:05:40;;;;;;;22.13;9.88;;;13.60;99.90;;;;;;4976145;28;20061;-77
2021/08/17 05:08:10;;;;;;;24.20;11.13;;;13.60;99.90;;;;;;4975829;28;20053;-77
2021/08/17 05:10:36;;;;;;;22.52;11.32;;;13.60;99.90;;;;;;4976106;28;20058;-76
2021/08/17 05:13:03;;;;;;;23.42;10.10;;;13.70;99.90;;;;;;4976294;28;20027;-77
2021/08/17 05:15:30;;;;;;;25.75;11.75;;;13.70;99.90;;;;;;4975317;28;20019;-76
2021/08/17 05:17:55;;;;;;;19.00;10.30;;;13.80;99.90;;;;;;4976017;28;20053;-76
2021/08/17 05:20:21;;;;;;;22.23;11.07;;;13.80;99.90;;;;;;4976036;28;20047;-75
2021/08/17 05:22:47;;;;;;;20.38;9.90;;;13.90;99.90;;;;;;4975210;28;20062;-76
2021/08/17 05:25:13;;;;;;;25.42;11.77;;;13.90;99.90;;;;;;4976048;28;20030;-76
2021/08/17 05:27:39;;;;;;;22.65;11.43;;;13.90;99.90;;;;;;4976799;28;20038;-76
2021/08/17 05:30:06;;;;;;;31.42;13.27;;;14.00;99.90;;;;;;4975839;28;20031;-75
2021/08/17 05:32:31;;;;;;;26.48;12.23;;;14.20;99.90;;;;;;4975407;28;20030;-75
2021/08/17 05:34:57;;;;;;;22.75;11.80;;;14.10;99.90;;;;;;4975896;28;20023;-75
2021/08/17 05:37:23;;;;;;;24.55;12.80;;;14.20;99.90;;;;;;4975266;28;20590;-75
2021/08/17 05:39:49;;;;;;;34.80;13.93;;;14.20;99.90;;;;;;4975496;28;20483;-77
2021/08/17 05:42:14;;;;;;;30.23;13.00;;;14.30;99.90;;;;;;4974837;28;20022;-76
2021/08/17 05:44:41;;;;;;;30.15;11.88;;;14.40;99.90;;;;;;4974464;28;20086;-76
2021/08/17 05:47:07;;;;;;;30.75;12.88;;;14.50;99.90;;;;;;4975216;28;20082;-74
2021/08/17 05:49:32;;;;;;;27.00;12.82;;;14.60;99.90;;;;;;4974857;28;20530;-75
2021/08/17 05:51:58;;;;;;;26.38;13.10;;;14.60;99.90;;;;;;4975527;28;20049;-76
2021/08/17 05:54:24;;;;;;;23.27;12.38;;;14.60;99.90;;;;;;4975594;28;20058;-77
2021/08/17 05:57:08;;;;;;;29.15;12.90;;;14.70;99.90;;;;;;4974583;28;20027;-77
2021/08/17 05:59:34;;;;;;;28.65;12.88;;;14.80;99.90;;;;;;4975125;28;20043;-76
2021/08/17 06:02:01;;;;;;;27.63;12.23;;;14.90;99.90;;;;;;4975214;28;20026;-76
2021/08/17 06:04:27;;;;;;;27.02;12.73;;;14.90;99.90;;;;;;4974427;28;20364;-76
2021/08/17 06:06:53;;;;;;;26.25;13.27;;;14.90;99.90;;;;;;4975407;28;20022;-76
2021/08/17 06:09:19;;;;;;;29.95;13.75;;;15.00;99.90;;;;;;4975145;28;20030;-77
2021/08/17 06:11:47;;;;;;;29.33;13.85;;;15.20;99.90;;;;;;4974319;28;20571;-77
2021/08/17 06:14:13;;;;;;;34.78;13.52;;;15.20;99.90;;;;;;4974878;28;20023;-76
2021/08/17 06:16:39;;;;;;;32.42;14.35;;;15.20;99.90;;;;;;4974984;28;20026;-75
2021/08/17 06:19:05;;;;;;;30.65;13.20;;;15.30;99.90;;;;;;4973967;28;20387;-76
2021/08/17 06:21:31;;;;;;;25.63;11.80;;;15.30;99.90;;;;;;4974501;28;20027;-76
2021/08/17 06:23:58;;;;;;;29.75;13.32;;;15.40;99.90;;;;;;4975026;28;20030;-76
2021/08/17 06:26:24;;;;;;;32.83;12.82;;;15.50;99.90;;;;;;4974245;28;20054;-76
2021/08/17 06:28:50;;;;;;;35.05;14.15;;;15.50;99.90;;;;;;4974332;28;20046;-76
2021/08/17 06:31:22;;;;;;;28.35;12.38;;;15.50;99.90;;;;;;4974547;28;20485;-76
2021/08/17 06:33:49;;;;;;;27.25;11.63;;;15.60;99.90;;;;;;4974158;28;20069;-76
2021/08/17 06:36:15;;;;;;;32.55;13.45;;;15.60;99.90;;;;;;4974502;28;20066;-76
2021/08/17 06:38:42;;;;;;;23.30;10.75;;;15.70;99.90;;;;;;4973848;28;20488;-77
2021/08/17 06:41:08;;;;;;;26.85;10.93;;;15.70;99.90;;;;;;4974562;28;20061;-76
2021/08/17 06:43:33;;;;;;;36.97;12.02;;;15.60;99.90;;;;;;4974501;28;20117;-74
2021/08/17 06:45:59;;;;;;;31.13;11.60;;;15.70;99.90;;;;;;4974081;28;20078;-76
2021/08/17 06:48:24;;;;;;;21.70;11.77;;;15.80;99.90;;;;;;4974176;28;20031;-77
2021/08/17 06:50:50;;;;;;;23.85;10.98;;;15.80;99.90;;;;;;4974395;28;20031;-76
2021/08/17 06:53:16;;;;;;;30.38;11.40;;;15.90;99.90;;;;;;4973837;28;20479;-77
2021/08/17 06:55:42;;;;;;;26.80;11.07;;;16.00;99.90;;;;;;4973873;28;20158;-75
2021/08/17 06:58:12;;;;;;;25.77;10.25;;;16.10;99.90;;;;;;4974215;28;20022;-77
2021/08/17 07:00:37;;;;;;;28.63;10.38;;;16.20;99.90;;;;;;4973401;28;20401;-76
2021/08/17 07:03:06;;;;;;;25.38;10.20;;;16.30;99.90;;;;;;4974368;28;20513;-76
2021/08/17 07:05:35;;;;;;;20.02;8.98;;;16.30;99.90;;;;;;4973980;28;20086;-77
2021/08/17 07:08:02;;;;;;;17.20;9.43;;;16.40;99.90;;;;;;4973540;28;20375;-74
2021/08/17 07:10:28;;;;;;;14.60;7.45;;;16.40;99.90;;;;;;4973865;28;20043;-76
2021/08/17 07:12:53;;;;;;;17.02;8.30;;;16.40;99.90;;;;;;4974066;28;20018;-78
2021/08/17 07:15:19;;;;;;;14.90;7.25;;;16.30;99.90;;;;;;4973314;28;20130;-76
2021/08/17 07:17:44;;;;;;;18.73;9.05;;;16.30;99.90;;;;;;4973592;28;20098;-78
2021/08/17 07:20:10;;;;;;;21.08;7.38;;;16.30;99.90;;;;;;4973922;28;20031;-75
2021/08/17 07:22:36;;;;;;;18.48;8.30;;;16.30;99.90;;;;;;4972706;28;20026;-78
2021/08/17 07:25:02;;;;;;;14.77;7.22;;;16.30;99.90;;;;;;4973811;28;20033;-76
2021/08/17 07:27:27;;;;;;;22.23;8.68;;;16.30;99.90;;;;;;4973941;28;20035;-77
2021/08/17 07:29:53;;;;;;;14.38;7.90;;;16.30;99.90;;;;;;4972832;28;20077;-77
2021/08/17 07:32:19;;;;;;;13.95;7.20;;;16.30;99.90;;;;;;4973889;28;20039;-76
2021/08/17 07:34:44;;;;;;;20.95;8.48;;;16.20;99.90;;;;;;4972565;28;20082;-76
2021/08/17 07:37:10;;;;;;;21.83;7.35;;;16.20;99.90;;;;;;4973739;28;20015;-76
2021/08/17 07:39:35;;;;;;;17.05;7.43;;;16.20;99.90;;;;;;4973100;28;20035;-75
2021/08/17 07:42:01;;;;;;;24.48;8.35;;;16.30;99.90;;;;;;4972869;28;20023;-76
2021/08/17 07:44:27;;;;;;;14.77;7.40;;;16.30;99.90;;;;;;4973550;28;20035;-77
2021/08/17 07:46:53;;;;;;;14.38;7.63;;;16.50;99.90;;;;;;4973562;28;20078;-77
2021/08/17 07:49:18;;;;;;;20.30;8.35;;;16.60;99.90;;;;;;4972868;28;20027;-77
2021/08/17 07:51:44;;;;;;;15.00;7.63;;;16.70;99.90;;;;;;4973137;28;20054;-76
2021/08/17 07:54:10;;;;;;;14.80;7.45;;;16.90;99.90;;;;;;4973314;28;20490;-77
2021/08/17 07:56:35;;;;;;;19.25;7.63;;;17.00;99.90;;;;;;4972999;28;20027;-77
2021/08/17 07:59:01;;;;;;;14.05;7.20;;;17.10;99.90;;;;;;4974264;28;20027;-76
2021/08/17 08:01:27;;;;;;;20.67;6.93;;;17.20;99.90;;;;;;4973472;28;20023;-76
2021/08/17 08:03:52;;;;;;;12.85;7.47;;;17.20;99.90;;;;;;4972711;28;20379;-77
2021/08/17 08:06:18;;;;;;;18.02;7.47;;;17.20;99.90;;;;;;4973486;28;20030;-76
2021/08/17 08:08:44;;;;;;;14.07;6.78;;;17.20;99.90;;;;;;4978876;28;20027;-76
2021/08/17 08:11:09;;;;;;;13.95;6.93;;;17.20;99.90;;;;;;4978847;28;20439;-76
2021/08/17 08:13:35;;;;;;;12.65;7.30;;;17.20;99.90;;;;;;4979368;28;20427;-75
2021/08/17 08:16:01;;;;;;;10.30;6.82;;;17.30;99.90;;;;;;4979721;28;20034;-78
2021/08/17 08:18:26;;;;;;;14.32;7.90;;;17.30;99.90;;;;;;4979052;28;20034;-78
2021/08/17 08:20:52;;;;;;;10.55;6.75;;;17.30;99.90;;;;;;4979582;28;20035;-77
2021/08/17 08:23:18;;;;;;;14.20;7.55;;;17.40;99.90;;;;;;4979790;28;20027;-76
2021/08/17 08:25:43;;;;;;;16.35;6.68;;;17.50;99.90;;;;;;4978602;28;20031;-75
2021/08/17 08:28:10;;;;;;;10.48;5.30;;;17.60;99.90;;;;;;4979257;28;20046;-77
2021/08/17 08:30:37;;;;;;;8.90;5.65;;;17.70;99.90;;;;;;4979349;28;20027;-77
2021/08/17 08:33:02;;;;;;;12.30;6.53;;;17.60;99.90;;;;;;4978818;28;20014;-76
2021/08/17 08:35:28;;;;;;;8.23;5.45;;;17.60;99.90;;;;;;4979271;28;20049;-77
2021/08/17 08:37:55;;;;;;;9.10;6.22;;;17.60;99.90;;;;;;4979311;28;20031;-77
2021/08/17 08:40:26;;;;;;;10.90;5.50;;;17.50;99.90;;;;;;4978701;28;20035;-77
2021/08/17 08:42:53;;;;;;;8.30;5.90;;;17.40;99.90;;;;;;4979421;28;20544;-77
2021/08/17 08:45:19;;;;;;;10.57;5.43;;;17.30;99.90;;;;;;4978779;28;20030;-76
2021/08/17 08:47:44;;;;;;;6.72;5.50;;;17.20;99.90;;;;;;4979464;28;20046;-76
2021/08/17 08:50:11;;;;;;;6.78;4.22;;;17.10;99.90;;;;;;4979229;28;20486;-76
2021/08/17 08:52:37;;;;;;;8.38;4.95;;;17.00;99.90;;;;;;4978388;28;20398;-76
2021/08/17 08:55:05;;;;;;;6.43;4.63;;;16.90;99.90;;;;;;4979072;28;20428;-77
2021/08/17 08:57:31;;;;;;;10.07;4.55;;;16.80;99.90;;;;;;4978994;28;20457;-75
2021/08/17 08:59:57;;;;;;;9.77;4.55;;;16.90;99.90;;;;;;4978485;28;20121;-75
2021/08/17 09:02:29;;;;;;;7.75;4.07;;;16.90;99.90;;;;;;4979127;28;20023;-76
2021/08/17 09:04:56;;;;;;;9.80;4.55;;;16.90;99.90;;;;;;4979051;28;20402;-77
2021/08/17 09:07:42;;;;;;;7.20;4.13;;;16.90;99.90;;;;;;4978476;28;20435;-78
2021/08/17 09:10:14;;;;;;;10.60;4.18;;;17.00;99.90;;;;;;4979386;28;20042;-76
2021/08/17 09:12:42;;;;;;;9.65;4.90;;;16.90;99.90;;;;;;4978742;28;20015;-76
2021/08/17 09:15:12;;;;;;;9.35;4.60;;;16.90;99.90;;;;;;4978329;28;20037;-76
2021/08/17 09:17:40;;;;;;;;;;;16.80;99.90;;;;;;4978948;28;20026;-75
2021/08/17 09:20:08;;;;;;;10.13;4.15;;;16.80;99.90;;;;;;4976385;28;19961;-77
2021/08/17 09:22:33;;;;;;;11.85;4.75;;;16.70;99.90;;;;;;4975108;28;20387;-76
2021/08/17 09:25:02;;;;;;;8.57;3.88;;;16.70;99.90;;;;;;4976106;28;20051;-76
2021/08/17 09:27:33;;;;;;;8.68;4.03;;;16.60;99.90;;;;;;4975000;28;20062;-78
2021/08/17 09:30:02;;;;;;;6.78;4.57;;;16.70;99.90;;;;;;4976044;28;20031;-77
2021/08/17 09:32:28;;;;;;;9.20;4.28;;;16.70;99.90;;;;;;4975631;28;20023;-76
2021/08/17 09:34:57;;;;;;;8.90;4.18;;;16.80;99.90;;;;;;4974992;28;20368;-77
2021/08/17 09:37:28;;;;;;;5.78;3.60;;;16.80;99.90;;;;;;4976327;28;20031;-75
2021/08/17 09:39:54;;;;;;;6.22;4.25;;;16.80;99.90;;;;;;4975868;28;20413;-76
2021/08/17 09:42:31;;;;;;;6.18;3.78;;;16.80;99.90;;;;;;4962565;28;20109;-77
2021/08/17 09:45:05;;;;;;;8.23;4.00;;;16.80;99.90;;;;;;4976414;28;20383;-76
2021/08/17 09:47:32;;;;;;;5.25;3.60;;;16.80;99.90;;;;;;4962661;28;20019;-76
2021/08/17 09:50:19;;;;;;;9.70;4.22;;;16.80;99.90;;;;;;4975018;28;20049;-75
2021/08/17 09:52:46;;;;;;;10.68;4.47;;;16.70;99.90;;;;;;4975447;28;20487;-77
2021/08/17 09:55:18;;;;;;;6.68;4.35;;;16.70;99.90;;;;;;4975445;28;20049;-77
2021/08/17 09:57:44;;;;;;;8.43;3.85;;;16.70;99.90;;;;;;4961849;28;20050;-76
2021/08/17 10:00:14;;;;;;;6.72;4.00;;;16.60;99.90;;;;;;4975552;28;20042;-77
2021/08/17 10:02:45;;;;;;;9.02;3.63;;;16.60;99.90;;;;;;4974419;28;20034;-76
2021/08/17 10:05:14;;;;;;;6.38;3.83;;;16.60;99.90;;;;;;4975354;28;20476;-76
2021/08/17 10:07:41;;;;;;;4.18;3.47;;;16.60;99.90;;;;;;4974745;28;20019;-76
2021/08/17 10:10:08;;;;;;;8.68;3.63;;;16.50;99.90;;;;;;4975042;28;20059;-77
2021/08/17 10:12:36;;;;;;;6.72;3.90;;;16.50;99.90;;;;;;4974932;28;20027;-76
2021/08/17 10:15:03;;;;;;;10.20;3.72;;;16.50;99.90;;;;;;4975172;28;20018;-77
2021/08/17 10:17:28;;;;;;;5.68;3.40;;;16.50;99.90;;;;;;4974107;28;20105;-77
2021/08/17 10:19:54;;;;;;;8.55;3.55;;;16.50;99.90;;;;;;4974802;28;20109;-76
2021/08/17 10:22:20;;;;;;;5.32;3.28;;;16.50;99.90;;;;;;4975281;28;20066;-76
2021/08/17 10:24:48;;;;;;;5.57;3.95;;;16.50;99.90;;;;;;4974241;28;20034;-76
2021/08/17 10:27:33;;;;;;;6.55;3.60;;;16.80;99.90;;;;;;4975258;28;20019;-76
2021/08/17 10:30:14;;;;;;;9.73;4.05;;;16.40;99.90;;;;;;4974568;28;20046;-76
2021/08/17 10:32:50;;;;;;;3.38;2.85;;;16.40;99.90;;;;;;4973642;28;20030;-77
2021/08/17 10:35:32;;;;;;;6.47;2.95;;;16.40;99.90;;;;;;4975039;28;20026;-77
2021/08/17 10:38:12;;;;;;;4.53;2.80;;;16.30;99.90;;;;;;4973774;28;20608;-77
2021/08/17 10:40:53;;;;;;;4.07;3.30;;;16.20;99.90;;;;;;4974136;28;20335;-76
2021/08/17 10:43:31;;;;;;;5.55;3.88;;;16.20;99.90;;;;;;4974688;28;20031;-76
2021/08/17 10:45:59;;;;;;;6.53;3.85;;;16.10;99.90;;;;;;4974006;28;20027;-75
2021/08/17 10:48:44;;;;;;;19.85;5.00;;;16.00;99.90;;;;;;4974630;28;20378;-76
2021/08/17 10:51:18;;;;;;;7.07;4.88;;;15.90;99.90;;;;;;4974611;28;20113;-76
2021/08/17 10:54:03;;;;;;;7.43;4.28;;;15.90;99.90;;;;;;4973026;28;20427;-77
2021/08/17 10:56:31;;;;;;;10.35;4.93;;;15.90;99.90;;;;;;4974130;28;20034;-78
2021/08/17 10:58:57;;;;;;;10.95;4.00;;;15.80;99.90;;;;;;4973444;28;20035;-77
2021/08/17 11:01:34;;;;;;;7.22;4.60;;;15.80;99.90;;;;;;4974332;28;20026;-77
2021/08/17 11:04:12;;;;;;;6.22;4.47;;;15.80;99.90;;;;;;4973985;28;20031;-77
2021/08/17 11:06:40;;;;;;;11.10;4.38;;;15.70;99.90;;;;;;4973609;28;20403;-76
2021/08/17 11:09:13;;;;;;;5.65;4.15;;;15.70;99.90;;;;;;4974260;28;20031;-76
2021/08/17 11:11:41;;;;;;;9.65;4.30;;;15.70;99.90;;;;;;4973834;28;20054;-76
2021/08/17 11:14:12;;;;;;;4.88;4.18;;;15.60;99.90;;;;;;4973111;28;20030;-78
2021/08/17 11:16:49;;;;;;;6.03;4.03;;;15.60;99.90;;;;;;4973876;28;20042;-75
2021/08/17 11:19:16;;;;;;;7.50;4.50;;;15.60;99.90;;;;;;4973943;28;20033;-76
2021/08/17 11:21:47;;;;;;;8.38;4.40;;;15.60;99.90;;;;;;4972974;28;20372;-77
2021/08/17 11:24:16;;;;;;;5.00;3.88;;;15.50;99.90;;;;;;4973780;28;20090;-77
2021/08/17 11:26:44;;;;;;;6.25;4.75;;;15.50;99.90;;;;;;4973451;28;20019;-74
2021/08/17 11:29:27;;;;;;;5.13;4.63;;;15.40;99.90;;;;;;4972827;28;20086;-75
2021/08/17 11:31:55;;;;;;;11.20;4.38;;;15.40;99.90;;;;;;4962186;28;20023;-75
2021/08/17 11:34:27;;;;;;;10.27;5.10;;;15.30;99.90;;;;;;4972992;28;20029;-75
2021/08/17 11:37:14;;;;;;;6.53;4.90;;;15.30;99.90;;;;;;4973583;28;20023;-76
2021/08/17 11:39:46;;;;;;;6.93;5.22;;;15.20;99.90;;;;;;4973342;28;20031;-75
2021/08/17 11:42:27;;;;;;;7.53;5.70;;;15.20;99.90;;;;;;4972197;28;20041;-76
2021/08/17 11:45:06;;;;;;;7.63;5.03;;;15.20;99.90;;;;;;4973460;28;20037;-76
2021/08/17 11:47:31;;;;;;;6.38;5.55;;;15.10;99.90;;;;;;4960516;28;20031;-76
2021/08/17 11:49:59;;;;;;;5.78;5.18;;;15.10;99.90;;;;;;4972858;28;20027;-76
2021/08/17 11:52:26;;;;;;;9.93;6.05;;;15.20;99.90;;;;;;4973532;28;20027;-75
2021/08/17 11:54:56;;;;;;;6.13;5.53;;;15.20;99.90;;;;;;4973430;28;20482;-76
2021/08/17 11:57:25;;;;;;;9.23;6.47;;;15.20;99.90;;;;;;4972979;28;20027;-76
2021/08/17 11:59:51;;;;;;;7.50;5.70;;;15.20;99.90;;;;;;4973073;28;20368;-76
2021/08/17 12:02:20;;;;;;;6.82;5.60;;;15.20;99.90;;;;;;4972460;28;20681;-74
2021/08/17 12:05:00;;;;;;;6.85;4.97;;;15.30;99.90;;;;;;4973155;28;20035;-75
2021/08/17 12:07:31;;;;;;;8.05;4.90;;;15.30;99.90;;;;;;4973448;28;20027;-77
2021/08/17 12:10:18;;;;;;;6.57;5.10;;;15.20;99.90;;;;;;4972742;28;20027;-76
2021/08/17 12:12:53;;;;;;;5.50;5.00;;;15.30;99.90;;;;;;4975228;28;20105;-76
2021/08/17 12:15:19;;;;;;;7.45;5.30;;;15.30;99.90;;;;;;4973293;28;20542;-77
2021/08/17 12:17:55;;;;;;;8.23;5.70;;;15.40;99.90;;;;;;4972195;28;20023;-77
2021/08/17 12:20:21;;;;;;;6.35;5.47;;;15.50;99.90;;;;;;4973292;28;20031;-76
2021/08/17 12:22:47;;;;;;;6.18;5.35;;;15.50;99.90;;;;;;4972632;28;20049;-75
2021/08/17 12:25:21;;;;;;;6.22;5.63;;;15.60;99.90;;;;;;4972283;28;20058;-76
2021/08/17 12:27:56;;;;;;;4.95;4.55;;;15.90;99.90;;;;;;4972689;28;20509;-75
2021/08/17 12:30:26;;;;;;;5.90;5.35;;;15.80;99.90;;;;;;4971260;28;20046;-77
2021/08/17 12:32:53;;;;;;;5.60;4.80;;;15.90;99.90;;;;;;4973057;28;20031;-76
2021/08/17 12:35:25;;;;;;;5.75;4.75;;;16.00;99.90;;;;;;4972943;28;20027;-76
2021/08/17 12:37:50;;;;;;;6.55;5.15;;;16.00;99.90;;;;;;4971728;28;20023;-74
2021/08/17 12:40:16;;;;;;;7.70;4.47;;;16.10;99.90;;;;;;4973026;28;20038;-76
2021/08/17 12:42:44;;;;;;;4.30;3.90;;;16.10;99.90;;;;;;4972791;28;20082;-78